Ocean Navigator — WSC2552 — position and weather

sailwx.info

Track history (hours):
 
Tides and Currents Weather Stations Pressure Air Temp Water Temp Dewpoint Dewpoint Depression Visibility Wind Speed Wind Dir Waves Ship Positions

Ocean Navigator

Owner: OCEAN NAVIGATOR INC, SEATTLE, WA. More information available from US FCC via Universal Licensing System and Coast Guard Vessel Documentation Center.

Last reported at 2017-Mar-23 17:00 UTC. Time now 2017-Mar-24 10:29 UTC.
Position N 59°24' W 143°24'.

MMSI: 366358000.

Wind from 220 at 3 knots

Barometer 1004.1 mb
Air temperature 3.9 ° C
Visibility: greater than 5.4 NM

Date/timePositionNaut miles runAvg speedWind from/ knotsBaromVisibWave heightAir tempDewpointWater temp
2017-Mar-23 17:00N 59°24' W 143°24'   220 / 31004.1 5.4 3.9
2017-Mar-19 20:17N 51°33' W 127°52'15 8.7
2017-Mar-19 18:33N 51°17' W 127°53'9 8.5
2017-Mar-19 17:31N 51°09' W 127°50'7 7.6
2017-Mar-19 16:33N 51°04' W 127°41'9 8.8
2017-Mar-19 15:33N 50°58' W 127°31'9 9.4
2017-Mar-19 14:33N 50°52' W 127°20'76 9.3
2017-Mar-19 06:25N 50°21' W 125°31'7 8.5
2017-Mar-19 05:33N 50°16' W 125°23'8 8.5
2017-Mar-19 04:33N 50°07' W 125°21'6 6.1
2017-Mar-19 03:33N 50°03' W 125°14'5 5.3
2017-Mar-19 02:33N 49°58' W 125°10'8 7.6
2017-Mar-19 01:33N 49°53' W 125°01'6 6.0
2017-Mar-19 00:33N 49°50' W 124°54'5 5.2
2017-Mar-18 23:33N 49°46' W 124°48'5 5.3
2017-Mar-18 22:33N 49°43' W 124°41'5 5.5
2017-Mar-18 21:33N 49°40' W 124°34'7 6.6
2017-Mar-18 20:33N 49°36' W 124°26'7 7.2
2017-Mar-18 19:33N 49°32' W 124°17'7 6.5
2017-Mar-18 18:33N 49°29' W 124°08'7 7.2
2017-Mar-18 17:33N 49°25' W 123°59'8 8.0
2017-Mar-18 16:33N 49°20' W 123°50'8 7.9
2017-Mar-18 15:33N 49°15' W 123°40'8 8.0
2017-Mar-18 14:32N 49°09' W 123°31'9 8.8
2017-Mar-18 13:33N 49°04' W 123°20'9 8.8
2017-Mar-18 12:32N 48°58' W 123°10'9 9.2
2017-Mar-18 11:31N 48°52' W 122°59'9 9.2
2017-Mar-18 10:30N 48°46' W 122°48'8 8.2
2017-Mar-18 09:33N 48°39' W 122°43'8 8.3
2017-Mar-18 08:33N 48°31' W 122°44'9 9.0
2017-Mar-18 07:33N 48°22' W 122°45'9 9.3
2017-Mar-18 06:33N 48°13' W 122°48'11 9.6
2017-Mar-18 05:22N 48°04' W 122°38'8 9.5
2017-Mar-18 04:33N 47°57' W 122°32'9 8.7
2017-Mar-18 03:33N 47°49' W 122°27'9 9.1
2017-Mar-18 02:33N 47°40' W 122°27'6 6.0
2017-Mar-18 01:33N 47°35' W 122°22'0 0.4
2017-Mar-18 00:33N 47°35' W 122°22'0 0.1
2017-Mar-17 23:33N 47°35' W 122°22'3 3.1
2017-Mar-17 22:33N 47°38' W 122°25'2 2.3
2017-Mar-17 21:34N 47°40' W 122°23'1 0.5
2017-Mar-17 20:33N 47°39' W 122°22'0 0.0
2017-Mar-17 19:33N 47°39' W 122°22'0 0.0
2017-Mar-17 18:33N 47°39' W 122°22'0 0.0
2017-Mar-16 20:33N 47°40' W 122°23'2 2.5
2017-Mar-16 19:33N 47°38' W 122°25'6 5.8
2017-Mar-16 18:33N 47°33' W 122°20'1 0.6
2017-Mar-16 17:33N 47°33' W 122°21'  
Track history (hours):
 
Tides and Currents Weather Stations Pressure Air Temp Water Temp Dewpoint Dewpoint Depression Visibility Wind Speed Wind Dir Waves Ship Positions

Ocean Navigator

Owner: OCEAN NAVIGATOR INC, SEATTLE, WA. More information available from US FCC via Universal Licensing System and Coast Guard Vessel Documentation Center.

Last reported at 2017-Mar-23 17:00 UTC. Time now 2017-Mar-24 10:29 UTC.
Position N 59°24' W 143°24'.

MMSI: 366358000.

Wind from 220 at 3 knots

Barometer 1004.1 mb
Air temperature 3.9 ° C
Visibility: greater than 5.4 NM

Date/timePositionNaut miles runAvg speedWind from/ knotsBaromVisibWave heightAir tempDewpointWater temp
2017-Mar-23 17:00N 59°24' W 143°24'   220 / 31004.1 5.4 3.9
2017-Mar-19 20:17N 51°33' W 127°52'15 8.7
2017-Mar-19 18:33N 51°17' W 127°53'9 8.5
2017-Mar-19 17:31N 51°09' W 127°50'7 7.6
2017-Mar-19 16:33N 51°04' W 127°41'9 8.8
2017-Mar-19 15:33N 50°58' W 127°31'9 9.4
2017-Mar-19 14:33N 50°52' W 127°20'76 9.3
2017-Mar-19 06:25N 50°21' W 125°31'7 8.5
2017-Mar-19 05:33N 50°16' W 125°23'8 8.5
2017-Mar-19 04:33N 50°07' W 125°21'6 6.1
2017-Mar-19 03:33N 50°03' W 125°14'5 5.3
2017-Mar-19 02:33N 49°58' W 125°10'8 7.6
2017-Mar-19 01:33N 49°53' W 125°01'6 6.0
2017-Mar-19 00:33N 49°50' W 124°54'5 5.2
2017-Mar-18 23:33N 49°46' W 124°48'5 5.3
2017-Mar-18 22:33N 49°43' W 124°41'5 5.5
2017-Mar-18 21:33N 49°40' W 124°34'7 6.6
2017-Mar-18 20:33N 49°36' W 124°26'7 7.2
2017-Mar-18 19:33N 49°32' W 124°17'7 6.5
2017-Mar-18 18:33N 49°29' W 124°08'7 7.2
2017-Mar-18 17:33N 49°25' W 123°59'8 8.0
2017-Mar-18 16:33N 49°20' W 123°50'8 7.9
2017-Mar-18 15:33N 49°15' W 123°40'8 8.0
2017-Mar-18 14:32N 49°09' W 123°31'9 8.8
2017-Mar-18 13:33N 49°04' W 123°20'9 8.8
2017-Mar-18 12:32N 48°58' W 123°10'9 9.2
2017-Mar-18 11:31N 48°52' W 122°59'9 9.2
2017-Mar-18 10:30N 48°46' W 122°48'8 8.2
2017-Mar-18 09:33N 48°39' W 122°43'8 8.3
2017-Mar-18 08:33N 48°31' W 122°44'9 9.0
2017-Mar-18 07:33N 48°22' W 122°45'9 9.3
2017-Mar-18 06:33N 48°13' W 122°48'11 9.6
2017-Mar-18 05:22N 48°04' W 122°38'8 9.5
2017-Mar-18 04:33N 47°57' W 122°32'9 8.7
2017-Mar-18 03:33N 47°49' W 122°27'9 9.1
2017-Mar-18 02:33N 47°40' W 122°27'6 6.0
2017-Mar-18 01:33N 47°35' W 122°22'0 0.4
2017-Mar-18 00:33N 47°35' W 122°22'0 0.1
2017-Mar-17 23:33N 47°35' W 122°22'3 3.1
2017-Mar-17 22:33N 47°38' W 122°25'2 2.3
2017-Mar-17 21:34N 47°40' W 122°23'1 0.5
2017-Mar-17 20:33N 47°39' W 122°22'0 0.0
2017-Mar-17 19:33N 47°39' W 122°22'0 0.0
2017-Mar-17 18:33N 47°39' W 122°22'0 0.0
2017-Mar-16 20:33N 47°40' W 122°23'2 2.5
2017-Mar-16 19:33N 47°38' W 122°25'6 5.8
2017-Mar-16 18:33N 47°33' W 122°20'1 0.6
2017-Mar-16 17:33N 47°33' W 122°21'  

Dump ship's entire track history